Main page
METAR-TAF:

METAR-TAF

Airports :

Roland Garros Airport

Saint-Denis, Réunion

latitude: 20-53S, longitude: 055-31E, elevation: 21 m

Current weather observation

The report was made 25 minutes ago, at 10:30 UTC
Wind 2 kt from variable directions
Temperature 26°C
Humidity 70%
Pressure 1010 hPa
Visibility 10 km or more
Broken clouds at a height of 3700 ft
Overcast at a height of 4300 ft

METAR: FMEE 281030Z AUTO VRB02KT 9999 BKN037 OVC043 26/20 Q1010 BECMG 08012KT

Time: 14:55 (10:55 UTC)

Forecast

The report was made 5 hours and 55 minutes ago, at 05:00 UTC
Forecast valid from 28 at 06 UTC to 29 at 12 UTC
Wind 12 kt from the East
Visibility 10 km or more
Scattered clouds at a height of 2500 ft
Becoming
from 28 at 14 UTC to 28 at 16 UTC
Wind 5 kt from the South
Few clouds at a height of 3000 ft
Becoming
from 29 at 04 UTC to 29 at 06 UTC
Wind 12 kt from the East
Scattered clouds at a height of 2500 ft

TAF: FMEE 280500Z 2806/2912 08012KT 9999 SCT025 BECMG 2814/2816 18005KT FEW030 BECMG 2904/2906 08012KT SCT025

Weather observations and forecasts of more than 4000 airports (METAR and TAF reports).

The available stations are represented by yellow and red dots on the map.

Hover mouse over dot to see the name of the station.

Then click to see weather observations and forecasts.

To change the map : click on the green buttons with a black cross to zoom in, on the green button with a dash to zoom out, or on the green arrows for adjacent maps.


METAR-TAF: